Mandaree, ND

1:48 AM CDT on July 28, 2014 (GMT -0500)
Watford City (KS25) Elev 2110 ft | 47.80 °N, 103.26 °W | Change Station

Current weather conditions updated 13 minutes ago

Clear
Clear
55 °F
Feels Like 55 °F
N
4
Wind Variable Wind from SSW

Today is forecast to be Warmer than yesterday.

Today
High -- | Low -- °F
--% Chance of Precip.
Yesterday
High -- | Low -- °F
Precip. -- in
6:22 AM 9:31 PM
New Moon, 2% visible
Pressure 30.29 in
Visibility 10.0 miles
Clouds Clear
Dew Point 52 °F
Humidity 88%
Rainfall 0.00 in
Snow Depth Not available.
UV 0 out of 12
Pollen 6.50 out of 12
Air Quality Not available.
Flu Activity Not available.
METAR KS25 280635Z AUTO 21003KT 10SM CLR 13/11 A3029 RMK AO2

More Conditions Fewer Conditions

Pressure 30.29 in
Visibility 10.0 miles
Clouds Clear
Dew Point 52 °F
Humidity 88%
Rainfall 0.00 in
Snow Depth Not available.
UV 0 out of 12
Pollen 6.50 out of 12
Air Quality Not available.
Flu Activity Not available.
METAR KS25 280635Z AUTO 21003KT 10SM CLR 13/11 A3029 RMK AO2

More Conditions Fewer Conditions

10-Day Weather Forecast

Almanac

Astronomy

Jul. 28, 2014 Rise Set
Actual Time 6:22 AM CDT 9:31 PM CDT
Civil Twilight 5:45 AM CDT 10:08 PM CDT
Nautical Twilight 4:57 AM CDT 10:55 PM CDT
Astronomical Twilight 3:57 AM CDT 11:55 PM CDT
Moon 8:18 AM CDT 9:59 PM CDT
Length of Visible Light 16h 22m
Length of Day
15h 08m
Tomorrow will be 2m 34s shorter.
New Moon, 2% of the Moon is Illuminated
Today
New Moon
Aug 3
First Quarter
Aug 10
Full
Aug 17
Last Quarter
Aug 25
New

Today's Extremes

State Highs State Lows

Community

WunderPhotos

Upload Photos

1,738,290 photos uploaded!

Nearby

Snow Depth

Station Depth Elevation
No new snow has been reported.

Earthquake Activity

City Distance Mag. Time & Date
No recent earthquake activity has been reported nearby.
Minimum magnitude displayed is 2.5.

Coastal Water Temperatures

Place Temperature
No Stations Reporting

Nearby Weather Stations

There are no personal weather stations in this area.